createdAt,value
2023-01-09T00:02:02.247Z,96758.69
2023-01-09T00:04:07.916Z,96750.84
2023-01-09T00:06:12.932Z,96760.47
2023-01-09T00:08:18.562Z,96758.59
2023-01-09T00:10:25.891Z,96754.34
2023-01-09T00:12:32.225Z,96752.09
2023-01-09T00:14:39.556Z,96746.91
2023-01-09T00:16:44.407Z,96742.50
2023-01-09T00:18:49.368Z,96733.88
2023-01-09T00:20:54.444Z,96740.75
2023-01-09T00:22:59.223Z,96732.38
2023-01-09T00:25:04.116Z,96731.31
2023-01-09T00:27:09.195Z,96732.06
2023-01-09T00:29:15.685Z,96733.66
2023-01-09T00:31:24.018Z,96733.41
2023-01-09T00:33:31.565Z,96720.72
2023-01-09T00:35:36.758Z,96724.25
2023-01-09T00:37:41.349Z,96725.06
2023-01-09T00:39:46.315Z,96712.53
2023-01-09T00:41:55.068Z,96708.03
2023-01-09T00:44:04.094Z,96718.31
2023-01-09T00:46:10.329Z,96711.22
2023-01-09T00:48:24.956Z,96706.63
2023-01-09T00:50:33.942Z,96702.13
2023-01-09T00:52:42.108Z,96689.19
2023-01-09T00:54:47.699Z,96693.59
2023-01-09T00:56:53.072Z,96697.13
2023-01-09T00:58:57.998Z,96684.50
2023-01-09T01:01:02.938Z,96688.25
2023-01-09T01:03:07.866Z,96692.81
2023-01-09T01:05:27.830Z,96686.97
2023-01-09T01:07:38.889Z,96701.91
2023-01-09T01:09:43.883Z,96704.31
2023-01-09T01:11:50.818Z,96702.66
2023-01-09T01:13:55.772Z,96695.56
2023-01-09T01:16:00.717Z,96695.50
2023-01-09T01:18:05.548Z,96695.84
2023-01-09T01:20:13.125Z,96691.31
2023-01-09T01:22:20.675Z,96686.97
2023-01-09T01:24:25.594Z,96687.97
2023-01-09T01:26:30.378Z,96687.59
2023-01-09T01:28:35.183Z,96686.75
2023-01-09T01:30:41.077Z,96688.31
2023-01-09T01:32:46.254Z,96688.47
2023-01-09T01:34:52.205Z,96687.75
2023-01-09T01:36:57.100Z,96688.75
2023-01-09T01:39:04.895Z,96682.81
2023-01-09T01:41:09.838Z,96679.28
2023-01-09T01:43:15.630Z,96685.31
2023-01-09T01:45:22.197Z,96678.94
2023-01-09T01:47:33.880Z,96680.75
2023-01-09T01:49:38.665Z,96672.78
2023-01-09T01:51:47.874Z,96661.09
2023-01-09T01:53:56.653Z,96663.75
2023-01-09T01:56:09.361Z,96661.00
2023-01-09T01:58:18.297Z,96653.25
2023-01-09T02:00:27.108Z,96657.25
2023-01-09T02:02:35.050Z,96658.94
2023-01-09T02:04:42.900Z,96656.50
2023-01-09T02:06:54.031Z,96655.59
2023-01-09T02:08:59.078Z,96665.53
2023-01-09T02:11:07.474Z,96653.59
2023-01-09T02:13:12.927Z,96657.88
2023-01-09T02:15:19.201Z,96643.19
2023-01-09T02:17:43.846Z,96632.66
2023-01-09T02:20:30.542Z,96643.94
2023-01-09T02:22:47.682Z,96647.19
2023-01-09T02:25:24.646Z,96627.00
2023-01-09T02:27:54.923Z,96617.91
2023-01-09T02:30:33.097Z,96620.50
2023-01-09T02:32:49.886Z,96617.00
2023-01-09T02:35:05.666Z,96609.41
2023-01-09T02:37:14.265Z,96602.03
2023-01-09T02:39:26.665Z,96606.22
2023-01-09T02:41:39.032Z,96601.88
2023-01-09T02:43:43.833Z,96590.38
2023-01-09T02:45:51.566Z,96592.22
2023-01-09T02:47:56.376Z,96599.66
2023-01-09T02:50:03.859Z,96605.16
2023-01-09T02:52:29.107Z,96592.69
2023-01-09T02:54:47.014Z,96578.28
2023-01-09T02:57:19.272Z,96579.22
2023-01-09T02:59:30.202Z,96580.44
2023-01-09T03:01:52.348Z,96587.22
2023-01-09T03:04:05.919Z,96568.34
2023-01-09T03:06:16.377Z,96576.03
2023-01-09T03:08:23.596Z,96577.53
2023-01-09T03:10:35.511Z,96578.28
2023-01-09T03:12:43.107Z,96584.88
2023-01-09T03:14:51.801Z,96598.41
2023-01-09T03:17:03.461Z,96595.53
2023-01-09T03:19:12.406Z,96585.03
2023-01-09T03:21:17.871Z,96584.03
2023-01-09T03:23:22.769Z,96574.44
2023-01-09T03:25:30.063Z,96587.19
2023-01-09T03:27:35.379Z,96592.63
2023-01-09T03:29:40.309Z,96588.53
2023-01-09T03:31:45.197Z,96585.03
2023-01-09T03:33:52.642Z,96585.72
2023-01-09T03:35:57.672Z,96590.78
2023-01-09T03:38:02.488Z,96593.31
2023-01-09T03:40:08.592Z,96591.88
2023-01-09T03:42:13.458Z,96598.72
2023-01-09T03:44:18.283Z,96595.31
2023-01-09T03:46:23.407Z,96597.97
2023-01-09T03:48:28.212Z,96592.94
2023-01-09T03:50:35.593Z,96596.31
2023-01-09T03:52:40.355Z,96599.81
2023-01-09T03:54:45.241Z,96607.66
2023-01-09T03:56:50.407Z,96612.94
2023-01-09T03:58:55.173Z,96612.06
2023-01-09T04:01:04.400Z,96604.41
2023-01-09T04:03:09.523Z,96609.00
2023-01-09T04:05:14.440Z,96609.09
2023-01-09T04:07:21.776Z,96607.41
2023-01-09T04:09:26.620Z,96607.41
2023-01-09T04:11:31.461Z,96599.91
2023-01-09T04:13:36.239Z,96614.31
2023-01-09T04:15:41.010Z,96619.66
2023-01-09T04:17:45.801Z,96620.59
2023-01-09T04:19:50.950Z,96625.44
2023-01-09T04:21:55.719Z,96624.69
2023-01-09T04:24:06.201Z,96622.09
2023-01-09T04:26:11.179Z,96621.00
2023-01-09T04:28:16.032Z,96621.84
2023-01-09T04:30:20.944Z,96629.03
2023-01-09T04:32:27.683Z,96633.28
2023-01-09T04:34:32.508Z,96627.09
2023-01-09T04:36:37.386Z,96639.97
2023-01-09T04:38:42.209Z,96637.38
2023-01-09T04:40:49.927Z,96645.22
2023-01-09T04:42:54.758Z,96652.03
2023-01-09T04:44:59.615Z,96654.91
2023-01-09T04:47:04.474Z,96661.56
2023-01-09T04:49:09.355Z,96669.09
2023-01-09T04:51:14.155Z,96665.34
2023-01-09T04:53:18.944Z,96660.06
2023-01-09T04:55:23.783Z,96661.75
2023-01-09T04:57:31.158Z,96668.41
2023-01-09T04:59:36.023Z,96667.59
2023-01-09T05:01:41.005Z,96664.66
2023-01-09T05:03:46.079Z,96662.75
2023-01-09T05:05:50.866Z,96666.91
2023-01-09T05:07:55.611Z,96654.63
2023-01-09T05:10:00.430Z,96656.97
2023-01-09T05:12:05.244Z,96668.81
2023-01-09T05:14:12.967Z,96669.41
2023-01-09T05:16:17.798Z,96664.25
2023-01-09T05:18:22.685Z,96671.84
2023-01-09T05:20:27.740Z,96677.19
2023-01-09T05:22:32.546Z,96680.72
2023-01-09T05:24:37.422Z,96689.19
2023-01-09T05:26:42.214Z,96697.72
2023-01-09T05:28:46.962Z,96702.16
2023-01-09T05:30:57.371Z,96715.78
2023-01-09T05:33:02.134Z,96713.94
2023-01-09T05:35:07.635Z,96714.50
2023-01-09T05:37:12.392Z,96717.69
2023-01-09T05:39:17.238Z,96724.47
2023-01-09T05:41:24.210Z,96719.19
2023-01-09T05:43:29.049Z,96719.00
2023-01-09T05:45:33.917Z,96724.88
2023-01-09T05:47:41.361Z,96716.25
2023-01-09T05:49:46.141Z,96730.06
2023-01-09T05:51:50.982Z,96735.31
2023-01-09T05:53:55.775Z,96745.91
2023-01-09T05:56:00.668Z,96750.38
2023-01-09T05:58:05.473Z,96748.25
2023-01-09T06:00:12.574Z,96762.16
2023-01-09T06:02:17.664Z,96772.06
2023-01-09T06:04:24.917Z,96769.66
2023-01-09T06:06:29.675Z,96771.16
2023-01-09T06:08:34.593Z,96774.94
2023-01-09T06:10:39.411Z,96774.00
2023-01-09T06:12:49.127Z,96774.66
2023-01-09T06:14:53.874Z,96780.69
2023-01-09T06:16:58.871Z,96782.28
2023-01-09T06:19:03.698Z,96792.88
2023-01-09T06:21:11.204Z,96792.53
2023-01-09T06:23:16.060Z,96801.91
2023-01-09T06:25:21.413Z,96796.47
2023-01-09T06:27:26.204Z,96791.34
2023-01-09T06:29:30.964Z,96796.38
2023-01-09T06:31:35.776Z,96793.19
2023-01-09T06:33:40.578Z,96796.03
2023-01-09T06:35:45.374Z,96814.56
2023-01-09T06:37:53.057Z,96811.28
2023-01-09T06:39:57.865Z,96827.78
2023-01-09T06:42:02.712Z,96820.78
2023-01-09T06:44:07.533Z,96830.00
2023-01-09T06:46:12.853Z,96821.41
2023-01-09T06:48:17.841Z,96825.16
2023-01-09T06:50:22.894Z,96824.47
2023-01-09T06:52:29.866Z,96827.72
2023-01-09T06:54:37.780Z,96829.72
2023-01-09T06:56:42.655Z,96836.50
2023-01-09T06:58:47.507Z,96846.22
2023-01-09T07:00:53.676Z,96837.56
2023-01-09T07:02:58.418Z,96856.75
2023-01-09T07:05:04.119Z,96839.72
2023-01-09T07:07:08.902Z,96864.00
2023-01-09T07:09:14.162Z,96858.88
2023-01-09T07:11:21.270Z,96862.91
2023-01-09T07:13:26.040Z,96858.75
2023-01-09T07:15:31.050Z,96862.34
2023-01-09T07:17:35.980Z,96863.06
2023-01-09T07:19:40.826Z,96860.34
2023-01-09T07:21:45.701Z,96864.69
2023-01-09T07:23:50.575Z,96860.44
2023-01-09T07:25:55.495Z,96866.59
2023-01-09T07:28:02.987Z,96873.41
2023-01-09T07:30:09.643Z,96865.91
2023-01-09T07:32:14.526Z,96874.66
2023-01-09T07:34:19.699Z,96878.31
2023-01-09T07:36:24.887Z,96866.59
2023-01-09T07:38:29.786Z,96869.84
2023-01-09T07:40:34.773Z,96870.69
2023-01-09T07:42:39.608Z,96872.44
2023-01-09T07:44:47.119Z,96882.47
2023-01-09T07:46:52.483Z,96879.69
2023-01-09T07:48:57.304Z,96887.22
2023-01-09T07:51:02.227Z,96884.03
2023-01-09T07:53:07.200Z,96913.00
2023-01-09T07:55:13.244Z,96912.53
2023-01-09T07:57:18.401Z,96910.72
2023-01-09T07:59:26.300Z,96908.66
2023-01-09T08:01:33.818Z,96896.94
2023-01-09T08:03:38.963Z,96902.03
2023-01-09T08:05:43.839Z,96902.88
2023-01-09T08:07:50.651Z,96907.91
2023-01-09T08:09:55.628Z,96907.06
2023-01-09T08:12:00.760Z,96904.47
2023-01-09T08:14:05.699Z,96904.03
2023-01-09T08:16:11.248Z,96917.78
2023-01-09T08:18:18.724Z,96909.13
2023-01-09T08:20:23.518Z,96903.94
2023-01-09T08:22:28.292Z,96910.25
2023-01-09T08:24:33.206Z,96916.03
2023-01-09T08:26:38.067Z,96913.16
2023-01-09T08:28:43.009Z,96910.41
2023-01-09T08:30:48.023Z,96919.09
2023-01-09T08:32:54.244Z,96941.13
2023-01-09T08:35:01.838Z,96918.84
2023-01-09T08:37:07.653Z,96918.41
2023-01-09T08:39:12.551Z,96917.00
2023-01-09T08:41:29.785Z,96923.69
2023-01-09T08:43:46.961Z,96931.44
2023-01-09T08:46:04.486Z,96937.25
2023-01-09T08:48:09.879Z,96924.56
2023-01-09T08:50:17.749Z,96933.06
2023-01-09T08:52:22.538Z,96944.09
2023-01-09T08:54:27.664Z,96956.66
2023-01-09T08:56:32.401Z,96953.72
2023-01-09T08:58:37.631Z,96953.19
2023-01-09T09:00:42.117Z,96960.41
2023-01-09T09:02:46.982Z,96957.13
2023-01-09T09:04:53.090Z,96952.72
2023-01-09T09:07:00.491Z,96955.47
2023-01-09T09:09:06.603Z,96954.41
2023-01-09T09:11:11.792Z,96956.94
2023-01-09T09:13:16.335Z,96961.72
2023-01-09T09:15:24.060Z,96970.25
2023-01-09T09:17:29.099Z,96978.78
2023-01-09T09:19:33.996Z,96977.25
2023-01-09T09:21:38.747Z,96975.28
2023-01-09T09:23:46.489Z,96979.31
2023-01-09T09:25:53.648Z,96978.69
2023-01-09T09:28:01.127Z,96988.41
2023-01-09T09:30:06.357Z,96990.09
2023-01-09T09:32:11.132Z,96987.41
2023-01-09T09:34:16.122Z,96994.19
2023-01-09T09:36:21.038Z,96996.16
2023-01-09T09:38:26.239Z,96996.25
2023-01-09T09:40:49.980Z,96991.38
2023-01-09T09:43:27.129Z,96986.00
2023-01-09T09:45:41.185Z,96992.31
2023-01-09T09:48:04.129Z,97000.91
2023-01-09T09:50:20.751Z,96996.53
2023-01-09T09:52:34.003Z,96993.41
2023-01-09T09:54:43.824Z,96982.59
2023-01-09T09:56:56.256Z,96988.81
2023-01-09T09:59:06.450Z,96976.69
2023-01-09T10:01:14.214Z,96976.91
2023-01-09T10:03:33.849Z,96988.38
2023-01-09T10:05:43.719Z,96993.34
2023-01-09T10:07:51.669Z,96989.28
2023-01-09T10:10:00.471Z,96980.56
2023-01-09T10:12:22.063Z,96989.53
2023-01-09T10:14:27.497Z,96987.00
2023-01-09T10:16:43.196Z,96980.06
2023-01-09T10:18:55.829Z,96979.13
2023-01-09T10:21:03.085Z,96981.00
2023-01-09T10:23:25.619Z,96973.31
2023-01-09T10:25:40.813Z,96977.41
2023-01-09T10:28:03.608Z,96981.34
2023-01-09T10:30:26.116Z,96988.06
2023-01-09T10:32:45.992Z,96995.53
2023-01-09T10:35:00.951Z,96990.44
2023-01-09T10:37:13.461Z,96983.91
2023-01-09T10:39:27.143Z,96984.69
2023-01-09T10:41:37.441Z,96984.25
2023-01-09T10:43:50.470Z,96984.16
2023-01-09T10:45:57.008Z,96980.31
2023-01-09T10:48:06.565Z,96970.84
2023-01-09T10:50:22.006Z,96966.66
2023-01-09T10:52:33.166Z,96971.94
2023-01-09T10:54:40.599Z,96974.34
2023-01-09T10:56:52.554Z,96977.88
2023-01-09T10:59:00.123Z,96964.66
2023-01-09T11:01:05.465Z,96965.06
2023-01-09T11:03:15.385Z,96977.72
2023-01-09T11:05:27.889Z,96971.94
2023-01-09T11:07:39.838Z,96972.34
2023-01-09T11:10:00.834Z,96966.75
2023-01-09T11:12:26.556Z,96970.44
2023-01-09T11:14:33.978Z,96977.56
2023-01-09T11:16:38.778Z,96979.91
2023-01-09T11:18:52.514Z,96981.22
2023-01-09T11:20:57.425Z,96976.91
2023-01-09T11:23:02.265Z,96983.91
2023-01-09T11:25:14.496Z,96981.91
2023-01-09T11:27:28.785Z,96980.91
2023-01-09T11:29:36.150Z,96979.22
2023-01-09T11:31:42.376Z,96985.31
2023-01-09T11:33:51.871Z,96973.94
2023-01-09T11:36:04.356Z,96968.69
2023-01-09T11:38:15.412Z,96972.16
2023-01-09T11:40:24.595Z,96969.41
2023-01-09T11:42:43.919Z,96967.50
2023-01-09T11:44:51.783Z,96968.41
2023-01-09T11:46:56.791Z,96963.22
2023-01-09T11:49:02.530Z,96965.63
2023-01-09T11:51:19.138Z,96968.16
2023-01-09T11:53:24.264Z,96961.19
2023-01-09T11:55:34.808Z,96959.78
2023-01-09T11:57:46.556Z,96964.22
2023-01-09T11:59:55.558Z,96966.38
2023-01-09T12:02:28.924Z,96967.31
2023-01-09T12:04:38.153Z,96956.84
2023-01-09T12:06:54.441Z,96959.59
2023-01-09T12:09:03.556Z,96967.56
2023-01-09T12:11:22.009Z,96967.22
2023-01-09T12:13:44.454Z,96962.63
2023-01-09T12:16:00.874Z,96965.38
2023-01-09T12:18:24.072Z,96962.78
2023-01-09T12:20:53.356Z,96965.97
2023-01-09T12:23:13.664Z,96963.03
2023-01-09T12:25:29.379Z,96964.16
2023-01-09T12:27:48.398Z,96967.97
2023-01-09T12:30:28.446Z,96972.88
2023-01-09T12:32:46.200Z,96982.81
2023-01-09T12:35:04.439Z,96984.16
2023-01-09T12:37:26.467Z,96991.28
2023-01-09T12:39:43.452Z,96988.44
2023-01-09T12:42:02.216Z,96987.66
2023-01-09T12:44:34.571Z,96996.13
2023-01-09T12:46:50.627Z,96986.84
2023-01-09T12:49:23.566Z,96996.72
2023-01-09T12:51:36.447Z,97013.19
2023-01-09T12:53:46.961Z,97003.50
2023-01-09T12:55:56.650Z,97005.09
2023-01-09T12:58:04.947Z,96998.97
2023-01-09T13:00:19.738Z,97010.59
2023-01-09T13:02:32.531Z,97002.47
2023-01-09T13:04:45.085Z,97015.47
2023-01-09T13:06:57.167Z,97010.81
2023-01-09T13:09:14.255Z,97002.22
2023-01-09T13:11:23.228Z,97006.09
2023-01-09T13:13:33.739Z,97004.22
2023-01-09T13:15:43.628Z,96998.47
2023-01-09T13:17:54.511Z,97002.72
2023-01-09T13:20:02.162Z,97004.22
2023-01-09T13:22:12.036Z,97008.84
2023-01-09T13:24:23.151Z,96994.00
2023-01-09T13:26:33.999Z,96996.94
2023-01-09T13:28:47.100Z,96995.34
2023-01-09T13:31:11.645Z,96996.25
2023-01-09T13:33:22.113Z,96992.94
2023-01-09T13:35:29.566Z,97000.06
2023-01-09T13:37:37.654Z,96999.78
2023-01-09T13:39:42.465Z,96998.53
2023-01-09T13:42:06.174Z,97002.63
2023-01-09T13:44:28.665Z,97002.53
2023-01-09T13:46:39.831Z,97008.41
2023-01-09T13:48:44.814Z,96998.09
2023-01-09T13:50:55.917Z,96996.91
2023-01-09T13:53:41.170Z,97002.53
2023-01-09T13:56:09.483Z,96998.19
2023-01-09T13:58:22.832Z,97012.75
2023-01-09T14:00:53.756Z,97024.03
2023-01-09T14:02:59.872Z,97035.13
2023-01-09T14:05:05.525Z,97041.16
2023-01-09T14:07:31.072Z,97048.09
2023-01-09T14:09:39.693Z,97048.94
2023-01-09T14:11:46.093Z,97054.44
2023-01-09T14:14:06.828Z,97066.59
2023-01-09T14:16:20.609Z,97059.81
2023-01-09T14:18:28.331Z,97059.81
2023-01-09T14:20:38.720Z,97052.28
2023-01-09T14:22:56.596Z,97055.56
2023-01-09T14:25:12.941Z,97044.50
2023-01-09T14:27:47.588Z,97045.06
2023-01-09T14:29:52.428Z,97052.47
2023-01-09T14:32:34.122Z,97062.34
2023-01-09T14:34:41.812Z,97060.41
2023-01-09T14:36:46.856Z,97065.34
2023-01-09T14:38:56.043Z,97059.84
2023-01-09T14:41:04.620Z,97059.00
2023-01-09T14:43:19.082Z,97064.03
2023-01-09T14:45:26.966Z,97060.41
2023-01-09T14:47:38.837Z,97053.28
2023-01-09T14:49:46.590Z,97060.25
2023-01-09T14:51:53.485Z,97066.13
2023-01-09T14:54:02.880Z,97064.69
2023-01-09T14:56:15.189Z,97071.72
2023-01-09T14:58:28.230Z,97076.56
2023-01-09T15:00:33.367Z,97098.06
2023-01-09T15:02:42.449Z,97098.91
2023-01-09T15:04:48.055Z,97116.09
2023-01-09T15:06:53.243Z,97133.78
2023-01-09T15:09:05.753Z,97133.88
2023-01-09T15:11:14.752Z,97148.34
2023-01-09T15:13:23.744Z,97153.38
2023-01-09T15:15:29.504Z,97151.31
2023-01-09T15:17:39.464Z,97151.41
2023-01-09T15:19:47.904Z,97145.84
2023-01-09T15:22:04.753Z,97144.75
2023-01-09T15:24:27.191Z,97141.09
2023-01-09T15:26:33.748Z,97139.59
2023-01-09T15:28:44.411Z,97140.66
2023-01-09T15:30:49.455Z,97137.75
2023-01-09T15:32:55.317Z,97144.94
2023-01-09T15:35:00.653Z,97142.94
2023-01-09T15:37:05.305Z,97155.34
2023-01-09T15:39:10.379Z,97161.59
2023-01-09T15:41:41.403Z,97164.03
2023-01-09T15:43:44.602Z,97161.34
2023-01-09T15:45:50.734Z,97159.97
2023-01-09T15:47:55.834Z,97161.16
2023-01-09T15:50:08.819Z,97167.25
2023-01-09T15:52:18.361Z,97181.50
2023-01-09T15:54:31.414Z,97187.59
2023-01-09T15:56:39.451Z,97187.59
2023-01-09T15:58:47.580Z,97199.63
2023-01-09T16:00:57.920Z,97200.34
2023-01-09T16:03:13.034Z,97201.38
2023-01-09T16:05:19.844Z,97201.50
2023-01-09T16:07:24.655Z,97198.88
2023-01-09T16:09:31.421Z,97203.28
2023-01-09T16:11:41.006Z,97206.50
2023-01-09T16:13:48.070Z,97215.72
2023-01-09T16:15:54.499Z,97212.13
2023-01-09T16:18:09.512Z,97208.44
2023-01-09T16:20:19.019Z,97216.06
2023-01-09T16:22:25.770Z,97222.84
2023-01-09T16:24:37.758Z,97218.44
2023-01-09T16:26:45.299Z,97219.97
2023-01-09T16:28:50.199Z,97219.91
2023-01-09T16:30:56.812Z,97219.72
2023-01-09T16:33:02.364Z,97221.53
2023-01-09T16:35:09.611Z,97228.25
2023-01-09T16:37:16.028Z,97220.31
2023-01-09T16:39:21.156Z,97228.03
2023-01-09T16:41:40.368Z,97217.81
2023-01-09T16:43:48.268Z,97229.06
2023-01-09T16:45:53.152Z,97227.56
2023-01-09T16:47:58.631Z,97234.69
2023-01-09T16:50:03.588Z,97237.56
2023-01-09T16:52:19.099Z,97231.88
2023-01-09T16:54:24.561Z,97238.25
2023-01-09T16:56:31.892Z,97236.97
2023-01-09T16:58:38.940Z,97244.03
2023-01-09T17:00:46.388Z,97251.88
2023-01-09T17:02:51.194Z,97251.00
2023-01-09T17:04:56.540Z,97252.91
2023-01-09T17:07:01.529Z,97253.94
2023-01-09T17:09:06.305Z,97262.72
2023-01-09T17:11:21.521Z,97268.91
2023-01-09T17:13:26.486Z,97268.31
2023-01-09T17:15:32.523Z,97279.47
2023-01-09T17:17:40.083Z,97276.84
2023-01-09T17:19:46.772Z,97282.53
2023-01-09T17:21:51.722Z,97285.88
2023-01-09T17:24:08.822Z,97286.66
2023-01-09T17:26:32.476Z,97294.38
2023-01-09T17:28:37.575Z,97291.00
2023-01-09T17:30:42.301Z,97287.00
2023-01-09T17:32:49.759Z,97286.94
2023-01-09T17:34:54.565Z,97290.56
2023-01-09T17:36:59.473Z,97298.59
2023-01-09T17:39:05.184Z,97301.22
2023-01-09T17:41:11.729Z,97310.66
2023-01-09T17:43:16.983Z,97308.59
2023-01-09T17:45:22.055Z,97299.06
2023-01-09T17:47:26.836Z,97293.16
2023-01-09T17:49:34.292Z,97288.09
2023-01-09T17:51:39.211Z,97283.69
2023-01-09T17:53:44.211Z,97291.44
2023-01-09T17:55:49.241Z,97288.09
2023-01-09T17:57:54.190Z,97297.59
2023-01-09T17:59:59.232Z,97301.22
2023-01-09T18:02:04.108Z,97304.91
2023-01-09T18:04:09.321Z,97299.81
2023-01-09T18:06:16.893Z,97309.28
2023-01-09T18:08:21.819Z,97309.28
2023-01-09T18:10:29.704Z,97319.63
2023-01-09T18:12:34.592Z,97321.47
2023-01-09T18:14:41.433Z,97325.72
2023-01-09T18:16:46.407Z,97324.09
2023-01-09T18:18:51.285Z,97337.72
2023-01-09T18:20:56.223Z,97342.72
2023-01-09T18:23:03.639Z,97340.81
2023-01-09T18:25:09.365Z,97353.53
2023-01-09T18:27:14.162Z,97346.41
2023-01-09T18:29:20.141Z,97357.56
2023-01-09T18:31:26.196Z,97358.41
2023-01-09T18:33:31.026Z,97353.47
2023-01-09T18:35:38.318Z,97364.72
2023-01-09T18:37:43.168Z,97368.03
2023-01-09T18:39:50.592Z,97377.53
2023-01-09T18:41:55.451Z,97382.72
2023-01-09T18:44:02.020Z,97380.19
2023-01-09T18:46:10.712Z,97384.69
2023-01-09T18:48:15.583Z,97389.16
2023-01-09T18:50:20.704Z,97381.34
2023-01-09T18:52:28.346Z,97392.59
2023-01-09T18:54:33.147Z,97394.22
2023-01-09T18:56:40.698Z,97394.88
2023-01-09T18:58:45.635Z,97395.56
2023-01-09T19:00:51.552Z,97400.63
2023-01-09T19:02:56.440Z,97395.56
2023-01-09T19:05:01.268Z,97405.91
2023-01-09T19:07:06.181Z,97406.84
2023-01-09T19:09:11.076Z,97404.25
2023-01-09T19:11:16.350Z,97412.97
2023-01-09T19:13:23.533Z,97418.31
2023-01-09T19:15:30.000Z,97420.38
2023-01-09T19:17:34.819Z,97431.75
2023-01-09T19:19:39.626Z,97423.31
2023-01-09T19:21:45.655Z,97424.28
2023-01-09T19:23:51.333Z,97422.69
2023-01-09T19:25:57.774Z,97434.00
2023-01-09T19:28:02.557Z,97437.69
2023-01-09T19:30:12.351Z,97431.56
2023-01-09T19:32:18.007Z,97436.97
2023-01-09T19:34:24.213Z,97432.94
2023-01-09T19:36:30.537Z,97439.97
2023-01-09T19:38:35.411Z,97444.06
2023-01-09T19:40:40.374Z,97439.69
2023-01-09T19:42:45.147Z,97445.75
2023-01-09T19:44:50.096Z,97447.31
2023-01-09T19:46:57.524Z,97449.91
2023-01-09T19:49:04.875Z,97465.47
2023-01-09T19:51:10.514Z,97455.88
2023-01-09T19:53:15.300Z,97460.00
2023-01-09T19:55:20.485Z,97463.53
2023-01-09T19:57:25.345Z,97467.94
2023-01-09T19:59:30.650Z,97469.66
2023-01-09T20:01:36.251Z,97469.06
2023-01-09T20:03:44.762Z,97474.13
2023-01-09T20:05:49.551Z,97483.94
2023-01-09T20:07:56.579Z,97480.53
2023-01-09T20:10:01.456Z,97484.91
2023-01-09T20:12:06.561Z,97489.00
2023-01-09T20:14:14.054Z,97489.56
2023-01-09T20:16:21.001Z,97487.84
2023-01-09T20:18:25.843Z,97489.56
2023-01-09T20:20:33.676Z,97498.03
2023-01-09T20:22:38.581Z,97495.72
2023-01-09T20:24:43.442Z,97490.91
2023-01-09T20:26:51.254Z,97494.91
2023-01-09T20:28:57.085Z,97502.72
2023-01-09T20:31:03.132Z,97503.03
2023-01-09T20:33:08.443Z,97504.09
2023-01-09T20:35:14.653Z,97507.00
2023-01-09T20:37:25.435Z,97515.25
2023-01-09T20:39:30.745Z,97516.06
2023-01-09T20:41:37.065Z,97512.75
2023-01-09T20:43:45.888Z,97515.16
2023-01-09T20:45:52.819Z,97517.00
2023-01-09T20:47:58.007Z,97522.75
2023-01-09T20:50:04.393Z,97525.44
2023-01-09T20:52:10.307Z,97529.09
2023-01-09T20:54:21.402Z,97519.31
2023-01-09T20:56:29.546Z,97530.44
2023-01-09T20:58:35.278Z,97532.19
2023-01-09T21:00:41.155Z,97537.22
2023-01-09T21:02:46.502Z,97536.50
2023-01-09T21:04:54.975Z,97539.59
2023-01-09T21:06:59.972Z,97544.94
2023-01-09T21:09:05.426Z,97542.28
2023-01-09T21:11:13.933Z,97545.78
2023-01-09T21:13:19.068Z,97553.47
2023-01-09T21:15:24.737Z,97542.25
2023-01-09T21:17:29.628Z,97564.72
2023-01-09T21:19:34.474Z,97557.00
2023-01-09T21:21:39.279Z,97556.50
2023-01-09T21:23:48.360Z,97562.34
2023-01-09T21:25:53.493Z,97564.09
2023-01-09T21:28:00.903Z,97565.38
2023-01-09T21:30:06.386Z,97578.94
2023-01-09T21:32:11.651Z,97575.31
2023-01-09T21:34:20.117Z,97576.59
2023-01-09T21:36:25.072Z,97585.47
2023-01-09T21:38:30.169Z,97594.06
2023-01-09T21:40:35.049Z,97599.34
2023-01-09T21:42:52.403Z,97598.06
2023-01-09T21:45:12.321Z,97599.00
2023-01-09T21:47:17.158Z,97597.56
2023-01-09T21:49:23.230Z,97612.28
2023-01-09T21:51:28.741Z,97629.19
2023-01-09T21:53:33.560Z,97632.50
2023-01-09T21:55:38.476Z,97632.63
2023-01-09T21:57:43.703Z,97649.34
2023-01-09T21:59:50.662Z,97660.75
2023-01-09T22:01:58.367Z,97667.81
2023-01-09T22:04:03.494Z,97664.53
2023-01-09T22:06:09.250Z,97670.44
2023-01-09T22:08:14.053Z,97687.91
2023-01-09T22:10:19.711Z,97685.38
2023-01-09T22:12:24.499Z,97680.25
2023-01-09T22:14:29.296Z,97684.13
2023-01-09T22:16:34.370Z,97694.59
2023-01-09T22:18:41.604Z,97689.47
2023-01-09T22:20:50.775Z,97686.97
2023-01-09T22:22:55.984Z,97690.25
2023-01-09T22:25:01.487Z,97690.19
2023-01-09T22:27:06.509Z,97687.56
2023-01-09T22:29:11.329Z,97700.41
2023-01-09T22:31:19.343Z,97707.94
2023-01-09T22:33:25.223Z,97708.06
2023-01-09T22:35:32.869Z,97710.75
2023-01-09T22:37:37.925Z,97714.53
2023-01-09T22:39:43.001Z,97714.47
2023-01-09T22:41:48.626Z,97713.72
2023-01-09T22:43:53.844Z,97717.88
2023-01-09T22:46:02.913Z,97728.16
2023-01-09T22:48:09.078Z,97734.88
2023-01-09T22:50:14.384Z,97730.47
2023-01-09T22:52:21.943Z,97733.84
2023-01-09T22:54:26.783Z,97735.59
2023-01-09T22:56:32.322Z,97734.13
2023-01-09T22:58:37.501Z,97738.22
2023-01-09T23:00:42.312Z,97743.34
2023-01-09T23:02:48.560Z,97744.13
2023-01-09T23:04:54.358Z,97747.50
2023-01-09T23:06:59.245Z,97744.22
2023-01-09T23:09:06.816Z,97746.78
2023-01-09T23:11:14.588Z,97743.94
2023-01-09T23:13:19.353Z,97747.38
2023-01-09T23:15:24.151Z,97751.53
2023-01-09T23:17:29.138Z,97756.75
2023-01-09T23:19:35.318Z,97761.13
2023-01-09T23:21:40.369Z,97766.13
2023-01-09T23:23:45.232Z,97763.53
2023-01-09T23:25:54.330Z,97764.38
2023-01-09T23:27:59.206Z,97777.31
2023-01-09T23:30:04.070Z,97779.22
2023-01-09T23:32:09.043Z,97785.34
2023-01-09T23:34:17.854Z,97781.88
2023-01-09T23:36:23.149Z,97780.06
2023-01-09T23:38:28.023Z,97785.22
2023-01-09T23:40:32.858Z,97780.97
2023-01-09T23:42:53.013Z,97780.44
2023-01-09T23:44:57.971Z,97785.59
2023-01-09T23:47:02.804Z,97787.19
2023-01-09T23:49:07.691Z,97795.66
2023-01-09T23:51:12.595Z,97793.94
2023-01-09T23:53:17.506Z,97804.22
2023-01-09T23:55:22.271Z,97810.25
2023-01-09T23:57:27.212Z,97812.00
2023-01-09T23:59:35.033Z,97818.16
